createdAt,value
2022-10-25T00:00:56.554Z,100.00
2022-10-25T00:03:23.109Z,100.00
2022-10-25T00:05:49.637Z,100.00
2022-10-25T00:08:16.242Z,100.00
2022-10-25T00:10:42.753Z,100.00
2022-10-25T00:13:09.291Z,100.00
2022-10-25T00:15:35.845Z,100.00
2022-10-25T00:18:02.353Z,100.00
2022-10-25T00:20:28.956Z,100.00
2022-10-25T00:22:55.493Z,100.00
2022-10-25T00:25:22.141Z,100.00
2022-10-25T00:27:48.694Z,100.00
2022-10-25T00:30:15.331Z,100.00
2022-10-25T00:32:41.932Z,100.00
2022-10-25T00:35:08.946Z,100.00
2022-10-25T00:37:35.946Z,100.00
2022-10-25T00:40:02.565Z,100.00
2022-10-25T00:42:29.093Z,100.00
2022-10-25T00:45:01.921Z,100.00
2022-10-25T00:47:45.085Z,100.00
2022-10-25T00:50:22.240Z,100.00
2022-10-25T00:52:51.572Z,100.00
2022-10-25T00:55:19.268Z,100.00
2022-10-25T00:57:52.993Z,100.00
2022-10-25T01:00:19.712Z,100.00
2022-10-25T01:02:46.701Z,100.00
2022-10-25T01:05:13.711Z,100.00
2022-10-25T01:07:40.244Z,100.00
2022-10-25T01:10:07.171Z,100.00
2022-10-25T01:12:33.991Z,100.00
2022-10-25T01:15:00.889Z,100.00
2022-10-25T01:17:36.261Z,100.00
2022-10-25T01:20:26.187Z,100.00
2022-10-25T01:23:13.995Z,100.00
2022-10-25T01:25:40.454Z,100.00
2022-10-25T01:28:12.958Z,100.00
2022-10-25T01:31:07.523Z,100.00
2022-10-25T01:33:40.326Z,100.00
2022-10-25T01:36:28.836Z,100.00
2022-10-25T01:39:12.197Z,100.00
2022-10-25T01:41:50.320Z,100.00
2022-10-25T01:44:40.317Z,100.00
2022-10-25T01:47:13.485Z,100.00
2022-10-25T01:50:02.041Z,100.00
2022-10-25T01:52:28.798Z,100.00
2022-10-25T01:54:55.355Z,100.00
2022-10-25T01:57:35.129Z,100.00
2022-10-25T02:00:07.343Z,100.00
2022-10-25T02:03:02.097Z,100.00
2022-10-25T02:05:54.708Z,100.00
2022-10-25T02:08:33.342Z,100.00
2022-10-25T02:11:21.455Z,100.00
2022-10-25T02:14:09.414Z,100.00
2022-10-25T02:16:50.899Z,100.00
2022-10-25T02:19:21.198Z,100.00
2022-10-25T02:21:48.640Z,100.00
2022-10-25T02:24:21.489Z,100.00
2022-10-25T02:29:22.649Z,100.00
2022-10-25T02:31:49.205Z,100.00
2022-10-25T02:34:15.807Z,100.00
2022-10-25T02:36:42.326Z,100.00
2022-10-25T02:39:08.880Z,100.00
2022-10-25T02:41:35.813Z,100.00
2022-10-25T02:44:02.433Z,100.00
2022-10-25T02:46:28.949Z,100.00
2022-10-25T02:48:55.609Z,100.00
2022-10-25T02:51:23.008Z,100.00
2022-10-25T02:53:49.833Z,100.00
2022-10-25T02:56:19.500Z,100.00
2022-10-25T02:58:47.338Z,100.00
2022-10-25T03:01:14.102Z,100.00
2022-10-25T03:03:41.269Z,100.00
2022-10-25T03:06:08.677Z,100.00
2022-10-25T03:08:35.259Z,100.00
2022-10-25T03:11:02.067Z,100.00
2022-10-25T03:13:28.598Z,100.00
2022-10-25T03:15:55.289Z,100.00
2022-10-25T03:18:22.425Z,100.00
2022-10-25T03:20:48.969Z,100.00
2022-10-25T03:23:16.013Z,100.00
2022-10-25T03:25:42.557Z,100.00
2022-10-25T03:28:09.320Z,100.00
2022-10-25T03:30:36.019Z,100.00
2022-10-25T03:33:02.548Z,100.00
2022-10-25T03:35:29.213Z,100.00
2022-10-25T03:37:55.835Z,100.00
2022-10-25T03:40:24.010Z,100.00
2022-10-25T03:42:50.561Z,100.00
2022-10-25T03:45:17.489Z,100.00
2022-10-25T03:47:44.206Z,100.00
2022-10-25T03:50:11.197Z,100.00
2022-10-25T03:52:37.954Z,100.00
2022-10-25T03:55:05.728Z,100.00
2022-10-25T03:57:32.401Z,100.00
2022-10-25T03:59:59.718Z,100.00
2022-10-25T04:02:27.065Z,100.00
2022-10-25T04:04:53.623Z,100.00
2022-10-25T04:07:20.175Z,100.00
2022-10-25T04:09:46.841Z,100.00
2022-10-25T04:12:13.379Z,100.00
2022-10-25T04:14:39.942Z,100.00
2022-10-25T04:17:06.481Z,100.00
2022-10-25T04:19:33.226Z,100.00
2022-10-25T04:22:02.142Z,100.00
2022-10-25T04:24:29.290Z,100.00
2022-10-25T04:26:55.860Z,100.00
2022-10-25T04:29:22.943Z,100.00
2022-10-25T04:31:49.499Z,100.00
2022-10-25T04:34:16.185Z,100.00
2022-10-25T04:36:42.768Z,100.00
2022-10-25T04:39:09.417Z,100.00
2022-10-25T04:41:36.046Z,100.00
2022-10-25T04:44:02.572Z,100.00
2022-10-25T04:46:29.173Z,100.00
2022-10-25T04:48:55.805Z,100.00
2022-10-25T04:51:22.313Z,100.00
2022-10-25T04:53:48.919Z,100.00
2022-10-25T04:56:15.475Z,100.00
2022-10-25T04:58:42.086Z,100.00
2022-10-25T05:01:13.938Z,100.00
2022-10-25T05:03:41.273Z,100.00
2022-10-25T05:06:34.001Z,100.00
2022-10-25T05:09:01.081Z,100.00
2022-10-25T05:11:27.723Z,100.00
2022-10-25T05:13:54.296Z,100.00
2022-10-25T05:16:24.085Z,100.00
2022-10-25T05:18:54.022Z,100.00
2022-10-25T05:21:21.321Z,100.00
2022-10-25T05:23:47.923Z,100.00
2022-10-25T05:26:15.781Z,100.00
2022-10-25T05:28:43.689Z,100.00
2022-10-25T05:31:20.827Z,100.00
2022-10-25T05:33:52.525Z,100.00
2022-10-25T05:36:19.205Z,100.00
2022-10-25T05:38:46.251Z,100.00
2022-10-25T05:41:14.097Z,100.00
2022-10-25T05:43:41.453Z,100.00
2022-10-25T05:46:10.796Z,100.00
2022-10-25T05:48:37.548Z,100.00
2022-10-25T05:51:33.801Z,100.00
2022-10-25T05:54:07.128Z,100.00
2022-10-25T05:56:34.876Z,100.00
2022-10-25T05:59:09.815Z,100.00
2022-10-25T06:01:42.002Z,100.00
2022-10-25T06:04:09.236Z,100.00
2022-10-25T06:06:36.894Z,100.00
2022-10-25T06:09:03.819Z,100.00
2022-10-25T06:11:30.814Z,100.00
2022-10-25T06:13:57.437Z,100.00
2022-10-25T06:16:24.416Z,100.00
2022-10-25T06:18:51.107Z,100.00
2022-10-25T06:21:20.625Z,100.00
2022-10-25T06:23:47.750Z,100.00
2022-10-25T06:26:16.650Z,100.00
2022-10-25T06:28:43.467Z,100.00
2022-10-25T06:31:15.103Z,100.00
2022-10-25T06:33:42.715Z,100.00
2022-10-25T06:36:15.468Z,100.00
2022-10-25T06:38:42.809Z,100.00
2022-10-25T06:41:31.445Z,100.00
2022-10-25T06:44:03.603Z,100.00
2022-10-25T06:46:33.644Z,100.00
2022-10-25T06:49:01.541Z,100.00
2022-10-25T06:51:29.108Z,100.00
2022-10-25T06:53:57.052Z,100.00
2022-10-25T06:56:24.613Z,100.00
2022-10-25T06:58:51.295Z,100.00
2022-10-25T07:01:19.230Z,100.00
2022-10-25T07:03:46.484Z,100.00
2022-10-25T07:06:15.043Z,100.00
2022-10-25T07:08:43.882Z,100.00
2022-10-25T07:11:18.354Z,100.00
2022-10-25T07:13:45.366Z,100.00
2022-10-25T07:16:14.280Z,100.00
2022-10-25T07:18:41.739Z,100.00
2022-10-25T07:21:11.478Z,100.00
2022-10-25T07:23:42.328Z,100.00
2022-10-25T07:26:12.929Z,100.00
2022-10-25T07:28:40.058Z,100.00
2022-10-25T07:31:07.332Z,100.00
2022-10-25T07:33:33.995Z,100.00
2022-10-25T07:36:09.746Z,100.00
2022-10-25T07:38:37.228Z,100.00
2022-10-25T07:41:04.040Z,100.00
2022-10-25T07:43:30.701Z,100.00
2022-10-25T07:45:57.347Z,100.00
2022-10-25T07:48:24.056Z,100.00
2022-10-25T07:50:51.062Z,100.00
2022-10-25T07:53:17.752Z,100.00
2022-10-25T07:55:50.066Z,100.00
2022-10-25T07:58:16.642Z,100.00
2022-10-25T08:00:43.146Z,100.00
2022-10-25T08:03:09.841Z,100.00
2022-10-25T08:05:36.449Z,100.00
2022-10-25T08:08:04.872Z,100.00
2022-10-25T08:10:31.869Z,100.00
2022-10-25T08:12:58.393Z,100.00
2022-10-25T08:15:25.014Z,100.00
2022-10-25T08:18:01.752Z,100.00
2022-10-25T08:20:49.564Z,100.00
2022-10-25T08:23:15.979Z,100.00
2022-10-25T08:25:42.781Z,100.00
2022-10-25T08:28:09.660Z,100.00
2022-10-25T08:30:36.299Z,100.00
2022-10-25T08:33:02.933Z,100.00
2022-10-25T08:35:29.630Z,100.00
2022-10-25T08:37:56.244Z,95.58
2022-10-25T08:40:31.815Z,89.12
2022-10-25T08:43:10.031Z,90.87
2022-10-25T08:45:38.947Z,90.59
2022-10-25T08:48:11.878Z,89.92
2022-10-25T08:50:42.792Z,90.77
2022-10-25T08:53:16.953Z,93.50
2022-10-25T08:55:58.734Z,93.13
2022-10-25T08:58:33.938Z,91.84
2022-10-25T09:01:03.969Z,87.58
2022-10-25T09:03:30.706Z,85.42
2022-10-25T09:06:13.101Z,82.40
2022-10-25T09:09:05.880Z,83.20
2022-10-25T09:11:43.506Z,83.55
2022-10-25T09:14:32.270Z,80.54
2022-10-25T09:17:12.657Z,81.06
2022-10-25T09:20:01.850Z,81.92
2022-10-25T09:22:30.825Z,81.43
2022-10-25T09:25:03.867Z,76.94
2022-10-25T09:27:37.630Z,74.57
2022-10-25T09:30:09.792Z,77.71
2022-10-25T09:32:42.053Z,73.68
2022-10-25T09:35:25.877Z,74.24
2022-10-25T09:37:56.403Z,72.15
2022-10-25T09:40:25.856Z,72.54
2022-10-25T09:43:20.220Z,74.03
2022-10-25T09:45:53.150Z,73.78
2022-10-25T09:48:26.526Z,73.88
2022-10-25T09:51:00.296Z,72.11
2022-10-25T09:53:27.357Z,72.03
2022-10-25T09:55:55.811Z,72.02
2022-10-25T09:58:30.525Z,74.08
2022-10-25T10:01:01.503Z,72.13
2022-10-25T10:03:31.869Z,72.18
2022-10-25T10:06:22.721Z,70.38
2022-10-25T10:08:52.087Z,70.47
2022-10-25T10:11:19.658Z,70.24
2022-10-25T10:13:53.876Z,68.83
2022-10-25T10:16:22.190Z,69.46
2022-10-25T10:18:48.877Z,68.68
2022-10-25T10:21:22.371Z,69.81
2022-10-25T10:23:50.830Z,68.77
2022-10-25T10:26:23.150Z,65.95
2022-10-25T10:28:52.359Z,67.45
2022-10-25T10:31:19.595Z,67.15
2022-10-25T10:33:50.536Z,66.74
2022-10-25T10:36:35.279Z,65.82
2022-10-25T10:39:25.138Z,65.87
2022-10-25T10:42:24.680Z,65.75
2022-10-25T10:45:03.516Z,66.24
2022-10-25T10:47:53.366Z,63.96
2022-10-25T10:50:23.109Z,64.26
2022-10-25T10:52:59.401Z,62.98
2022-10-25T10:55:33.829Z,64.28
2022-10-25T10:58:15.333Z,61.40
2022-10-25T11:00:53.110Z,62.05
2022-10-25T11:03:48.889Z,63.17
2022-10-25T11:06:32.728Z,62.50
2022-10-25T11:09:38.005Z,61.40
2022-10-25T11:12:07.030Z,61.64
2022-10-25T11:14:33.701Z,61.57
2022-10-25T11:17:20.455Z,61.86
2022-10-25T11:20:13.248Z,60.45
2022-10-25T11:23:10.768Z,60.73
2022-10-25T11:26:02.589Z,60.77
2022-10-25T11:28:42.166Z,60.82
2022-10-25T11:31:21.060Z,60.21
2022-10-25T11:34:18.404Z,60.43
2022-10-25T11:36:50.913Z,60.70
2022-10-25T11:39:23.851Z,60.71
2022-10-25T11:41:53.122Z,60.66
2022-10-25T11:44:46.451Z,59.71
2022-10-25T11:47:43.155Z,59.48
2022-10-25T11:50:28.190Z,59.75
2022-10-25T11:53:04.738Z,59.14
2022-10-25T11:55:43.135Z,58.29
2022-10-25T11:58:35.847Z,58.28
2022-10-25T12:01:35.433Z,57.90
2022-10-25T12:04:29.839Z,58.04
2022-10-25T12:07:19.907Z,57.85
2022-10-25T12:09:54.639Z,58.60
2022-10-25T12:12:28.853Z,57.63
2022-10-25T12:14:58.401Z,57.88
2022-10-25T12:17:28.365Z,58.07
2022-10-25T12:19:57.494Z,57.59
2022-10-25T12:22:29.853Z,57.70
2022-10-25T12:25:03.620Z,57.10
2022-10-25T12:27:30.837Z,58.37
2022-10-25T12:30:04.231Z,57.99
2022-10-25T12:32:37.712Z,58.33
2022-10-25T12:35:17.880Z,58.12
2022-10-25T12:37:56.384Z,57.54
2022-10-25T12:43:04.703Z,57.42
2022-10-25T12:45:57.414Z,57.88
2022-10-25T12:49:03.252Z,54.01
2022-10-25T12:51:56.174Z,54.94
2022-10-25T12:54:47.931Z,55.37
2022-10-25T12:57:28.493Z,56.31
2022-10-25T12:59:57.741Z,57.86
2022-10-25T13:02:49.362Z,57.37
2022-10-25T13:05:51.201Z,57.05
2022-10-25T13:08:20.428Z,57.33
2022-10-25T13:10:50.491Z,57.90
2022-10-25T13:13:25.749Z,58.20
2022-10-25T13:15:58.822Z,58.47
2022-10-25T13:18:34.191Z,58.55
2022-10-25T13:21:02.307Z,57.43
2022-10-25T13:23:49.349Z,58.05
2022-10-25T13:26:19.241Z,57.46
2022-10-25T13:29:27.214Z,57.69
2022-10-25T13:32:10.207Z,58.18
2022-10-25T13:34:39.170Z,57.31
2022-10-25T13:37:07.044Z,58.08
2022-10-25T13:39:46.155Z,58.66
2022-10-25T13:42:15.365Z,58.32
2022-10-25T13:45:03.323Z,59.04
2022-10-25T13:47:36.044Z,58.97
2022-10-25T13:50:18.705Z,56.41
2022-10-25T13:52:52.766Z,57.66
2022-10-25T13:55:21.413Z,57.04
2022-10-25T13:57:54.921Z,57.62
2022-10-25T14:00:26.474Z,58.68
2022-10-25T14:03:08.293Z,58.18
2022-10-25T14:05:53.947Z,59.10
2022-10-25T14:08:27.268Z,59.59
2022-10-25T14:10:54.233Z,59.47
2022-10-25T14:13:59.867Z,59.66
2022-10-25T14:16:32.704Z,58.86
2022-10-25T14:19:02.938Z,59.00
2022-10-25T14:21:29.674Z,59.01
2022-10-25T14:23:56.565Z,60.40
2022-10-25T14:26:23.355Z,60.21
2022-10-25T14:28:50.392Z,60.13
2022-10-25T14:31:20.301Z,60.27
2022-10-25T14:33:53.645Z,60.56
2022-10-25T14:36:28.913Z,61.10
2022-10-25T14:38:57.629Z,60.75
2022-10-25T14:41:33.137Z,62.06
2022-10-25T14:43:59.895Z,61.79
2022-10-25T14:46:27.564Z,62.26
2022-10-25T14:48:56.743Z,62.45
2022-10-25T14:51:37.466Z,62.80
2022-10-25T14:54:05.686Z,63.17
2022-10-25T14:56:35.399Z,63.57
2022-10-25T14:59:03.193Z,63.93
2022-10-25T15:01:29.872Z,64.42
2022-10-25T15:03:58.587Z,65.03
2022-10-25T15:06:28.448Z,65.03
2022-10-25T15:09:14.887Z,65.91
2022-10-25T15:12:11.157Z,66.61
2022-10-25T15:14:38.144Z,67.29
2022-10-25T15:17:14.404Z,68.13
2022-10-25T15:20:16.641Z,68.12
2022-10-25T15:22:46.620Z,68.55
2022-10-25T15:25:32.295Z,68.51
2022-10-25T15:28:15.984Z,69.66
2022-10-25T15:30:48.598Z,70.76
2022-10-25T15:33:41.604Z,71.73
2022-10-25T15:36:21.007Z,72.19
2022-10-25T15:39:07.902Z,72.36
2022-10-25T15:41:35.411Z,73.42
2022-10-25T15:44:01.977Z,73.34
2022-10-25T15:46:31.002Z,74.19
2022-10-25T15:49:03.225Z,73.98
2022-10-25T15:51:32.434Z,73.66
2022-10-25T15:53:59.073Z,74.61
2022-10-25T15:56:25.702Z,75.84
2022-10-25T15:58:52.349Z,76.91
2022-10-25T16:01:19.458Z,78.07
2022-10-25T16:03:46.078Z,79.15
2022-10-25T16:06:14.158Z,80.03
2022-10-25T16:08:41.975Z,82.27
2022-10-25T16:11:17.166Z,83.47
2022-10-25T16:13:45.421Z,84.99
2022-10-25T16:16:41.781Z,86.96
2022-10-25T16:19:16.497Z,90.09
2022-10-25T16:21:43.370Z,92.59
2022-10-25T16:24:10.529Z,93.79
2022-10-25T16:26:41.652Z,95.62
2022-10-25T16:29:19.476Z,98.06
2022-10-25T16:31:46.086Z,99.86
2022-10-25T16:34:15.378Z,100.00
2022-10-25T16:36:42.053Z,100.00
2022-10-25T16:39:09.741Z,100.00
2022-10-25T16:41:40.743Z,100.00
2022-10-25T16:44:07.514Z,100.00
2022-10-25T16:46:34.027Z,100.00
2022-10-25T16:49:02.064Z,100.00
2022-10-25T16:51:29.059Z,100.00
2022-10-25T16:53:57.171Z,100.00
2022-10-25T16:56:23.743Z,100.00
2022-10-25T16:58:50.252Z,100.00
2022-10-25T17:01:34.896Z,100.00
2022-10-25T17:04:03.432Z,100.00
2022-10-25T17:06:41.765Z,100.00
2022-10-25T17:09:09.765Z,100.00
2022-10-25T17:11:36.535Z,100.00
2022-10-25T17:14:03.653Z,100.00
2022-10-25T17:16:30.190Z,100.00
2022-10-25T17:18:57.312Z,100.00
2022-10-25T17:21:24.052Z,100.00
2022-10-25T17:23:50.587Z,100.00
2022-10-25T17:26:17.691Z,100.00
2022-10-25T17:28:44.619Z,100.00
2022-10-25T17:31:13.126Z,100.00
2022-10-25T17:33:40.679Z,100.00
2022-10-25T17:36:14.909Z,100.00
2022-10-25T17:38:42.094Z,100.00
2022-10-25T17:41:09.245Z,100.00
2022-10-25T17:43:37.174Z,100.00
2022-10-25T17:46:06.016Z,100.00
2022-10-25T17:48:33.295Z,100.00
2022-10-25T17:51:10.279Z,100.00
2022-10-25T17:53:36.919Z,100.00
2022-10-25T17:56:16.861Z,100.00
2022-10-25T17:58:45.489Z,100.00
2022-10-25T18:01:13.467Z,100.00
2022-10-25T18:03:40.242Z,100.00
2022-10-25T18:06:09.124Z,100.00
2022-10-25T18:08:38.549Z,100.00
2022-10-25T18:11:19.287Z,100.00
2022-10-25T18:13:45.902Z,100.00
2022-10-25T18:16:12.449Z,100.00
2022-10-25T18:18:39.070Z,100.00
2022-10-25T18:21:07.909Z,100.00
2022-10-25T18:23:35.193Z,100.00
2022-10-25T18:26:02.699Z,100.00
2022-10-25T18:28:32.082Z,100.00
2022-10-25T18:31:00.091Z,100.00
2022-10-25T18:33:29.641Z,100.00
2022-10-25T18:36:00.751Z,100.00
2022-10-25T18:38:27.715Z,100.00
2022-10-25T18:40:54.654Z,100.00
2022-10-25T18:43:21.898Z,100.00
2022-10-25T18:45:48.420Z,100.00
2022-10-25T18:48:15.031Z,100.00
2022-10-25T18:50:42.508Z,100.00
2022-10-25T18:53:09.304Z,100.00
2022-10-25T18:55:35.858Z,100.00
2022-10-25T18:58:02.450Z,100.00
2022-10-25T19:00:31.309Z,100.00
2022-10-25T19:02:57.982Z,100.00
2022-10-25T19:05:28.298Z,100.00
2022-10-25T19:07:55.704Z,100.00
2022-10-25T19:10:22.714Z,100.00
2022-10-25T19:12:50.810Z,100.00
2022-10-25T19:15:17.418Z,100.00
2022-10-25T19:17:43.987Z,100.00
2022-10-25T19:20:10.601Z,100.00
2022-10-25T19:22:37.807Z,100.00
2022-10-25T19:25:05.144Z,100.00
2022-10-25T19:27:31.710Z,100.00
2022-10-25T19:29:58.274Z,100.00
2022-10-25T19:32:24.806Z,100.00
2022-10-25T19:37:23.293Z,100.00
2022-10-25T19:39:49.853Z,100.00
2022-10-25T19:42:16.851Z,100.00
2022-10-25T19:44:43.378Z,100.00
2022-10-25T19:47:10.034Z,100.00
2022-10-25T19:49:36.611Z,100.00
2022-10-25T19:52:03.199Z,100.00
2022-10-25T19:54:29.783Z,100.00
2022-10-25T19:56:56.410Z,100.00
2022-10-25T19:59:22.952Z,100.00
2022-10-25T20:01:49.732Z,100.00
2022-10-25T20:04:16.568Z,100.00
2022-10-25T20:06:43.105Z,100.00
2022-10-25T20:09:10.257Z,100.00
2022-10-25T20:11:36.829Z,100.00
2022-10-25T20:14:03.534Z,100.00
2022-10-25T20:16:30.691Z,100.00
2022-10-25T20:18:59.600Z,100.00
2022-10-25T20:21:33.426Z,100.00
2022-10-25T20:24:03.002Z,100.00
2022-10-25T20:26:31.505Z,100.00
2022-10-25T20:29:00.489Z,100.00
2022-10-25T20:31:29.138Z,100.00
2022-10-25T20:33:56.011Z,100.00
2022-10-25T20:36:22.854Z,100.00
2022-10-25T20:38:49.440Z,100.00
2022-10-25T20:41:30.132Z,100.00
2022-10-25T20:43:59.813Z,100.00
2022-10-25T20:46:27.377Z,100.00
2022-10-25T20:48:54.328Z,100.00
2022-10-25T20:51:20.999Z,100.00
2022-10-25T20:53:51.562Z,100.00
2022-10-25T20:56:19.373Z,100.00
2022-10-25T20:58:46.414Z,100.00
2022-10-25T21:01:13.172Z,100.00
2022-10-25T21:03:40.118Z,100.00
2022-10-25T21:06:08.120Z,100.00
2022-10-25T21:08:36.990Z,100.00
2022-10-25T21:11:05.968Z,100.00
2022-10-25T21:13:34.666Z,100.00
2022-10-25T21:16:09.522Z,100.00
2022-10-25T21:18:37.271Z,100.00
2022-10-25T21:21:06.716Z,100.00
2022-10-25T21:23:33.488Z,100.00
2022-10-25T21:26:01.364Z,100.00
2022-10-25T21:28:32.034Z,100.00
2022-10-25T21:31:07.642Z,100.00
2022-10-25T21:33:34.442Z,100.00
2022-10-25T21:36:09.406Z,100.00
2022-10-25T21:38:36.126Z,100.00
2022-10-25T21:41:09.894Z,100.00
2022-10-25T21:43:37.899Z,100.00
2022-10-25T21:46:05.462Z,100.00
2022-10-25T21:48:32.133Z,100.00
2022-10-25T21:50:58.960Z,100.00
2022-10-25T21:53:25.595Z,100.00
2022-10-25T21:56:05.550Z,100.00
2022-10-25T21:58:32.227Z,100.00
2022-10-25T22:00:58.817Z,100.00
2022-10-25T22:03:29.027Z,100.00
2022-10-25T22:05:56.010Z,100.00
2022-10-25T22:08:22.706Z,100.00
2022-10-25T22:11:07.434Z,100.00
2022-10-25T22:13:34.882Z,100.00
2022-10-25T22:16:06.064Z,100.00
2022-10-25T22:18:33.108Z,100.00
2022-10-25T22:21:06.104Z,100.00
2022-10-25T22:23:33.772Z,100.00
2022-10-25T22:26:02.790Z,100.00
